Time,TemperatureF,DewpointF,PressureIn,WindDirection,WindDirectionDegrees,WindSpeedMPH,WindSpeedGustMPH,Humidity,HourlyPrecipIn,Conditions,Clouds,dailyrainin,SoftwareType,DateUTC
2013-03-11 00:02:00,42.0,39.0,30.20,SW,229,0.0,0.0,88,0.00,,,0.00,,2013-03-11 07:02:00,
2013-03-11 00:11:00,42.0,39.0,30.20,SW,229,0.0,0.0,88,0.00,,,0.00,,2013-03-11 07:11:00,
2013-03-11 00:21:00,42.0,39.0,30.20,SW,229,0.0,0.0,88,0.00,,,0.00,,2013-03-11 07:21:00,
2013-03-11 00:32:00,42.0,39.0,30.20,SW,229,0.0,0.0,88,0.00,,,0.00,,2013-03-11 07:32:00,
2013-03-11 00:42:00,42.0,39.0,30.20,SW,229,0.0,0.0,88,0.00,,,0.00,,2013-03-11 07:42:00,
2013-03-11 00:52:00,42.0,39.0,30.20,SW,229,0.0,0.0,88,0.00,,,0.00,,2013-03-11 07:52:00,
2013-03-11 01:02:00,41.0,38.0,30.19,SW,229,0.0,0.0,89,0.00,,,0.00,,2013-03-11 08:02:00,
2013-03-11 01:11:00,41.0,38.0,30.19,SW,229,0.0,0.0,89,0.00,,,0.00,,2013-03-11 08:11:00,
2013-03-11 01:22:00,41.0,38.0,30.19,SW,229,0.0,0.0,89,0.00,,,0.00,,2013-03-11 08:22:00,
2013-03-11 01:32:00,41.0,38.0,30.18,SW,229,0.0,0.0,89,0.00,,,0.00,,2013-03-11 08:32:00,
2013-03-11 01:42:00,41.0,38.0,30.18,SW,229,0.0,0.0,89,0.00,,,0.00,,2013-03-11 08:42:00,
2013-03-11 01:52:00,41.0,38.0,30.18,SW,229,0.0,0.0,89,0.00,,,0.00,,2013-03-11 08:52:00,
2013-03-11 02:02:00,40.0,37.0,30.18,SW,229,0.0,0.0,89,0.00,,,0.00,,2013-03-11 09:02:00,
2013-03-11 02:11:00,40.0,37.0,30.18,SW,229,0.0,0.0,89,0.00,,,0.00,,2013-03-11 09:11:00,
2013-03-11 02:22:00,40.0,37.0,30.18,SW,229,0.0,0.0,89,0.00,,,0.00,,2013-03-11 09:22:00,
2013-03-11 02:32:00,40.0,37.0,30.18,SW,229,0.0,0.0,89,0.00,,,0.00,,2013-03-11 09:32:00,
2013-03-11 02:41:00,40.0,37.0,30.18,SW,229,0.0,0.0,89,0.00,,,0.00,,2013-03-11 09:41:00,
2013-03-11 02:52:00,40.0,37.0,30.18,SW,229,0.0,0.0,89,0.00,,,0.00,,2013-03-11 09:52:00,
2013-03-11 03:02:00,39.0,36.0,30.18,SW,229,0.0,0.0,89,0.00,,,0.00,,2013-03-11 10:02:00,
2013-03-11 03:11:00,39.0,36.0,30.18,SW,229,0.0,0.0,89,0.00,,,0.00,,2013-03-11 10:11:00,
2013-03-11 03:21:00,39.0,36.0,30.18,SW,229,0.0,0.0,89,0.00,,,0.00,,2013-03-11 10:21:00,
2013-03-11 03:32:00,39.0,36.0,30.17,SW,229,0.0,0.0,90,0.00,,,0.00,,2013-03-11 10:32:00,
2013-03-11 03:41:00,39.0,36.0,30.17,SW,229,0.0,0.0,90,0.00,,,0.00,,2013-03-11 10:41:00,
2013-03-11 03:52:00,39.0,36.0,30.17,SW,229,0.0,0.0,90,0.00,,,0.00,,2013-03-11 10:52:00,
2013-03-11 04:02:00,39.0,36.0,30.16,SW,229,0.0,0.0,90,0.00,,,0.00,,2013-03-11 11:02:00,
2013-03-11 04:11:00,39.0,36.0,30.16,SW,229,0.0,0.0,90,0.00,,,0.00,,2013-03-11 11:11:00,
2013-03-11 04:22:00,39.0,36.0,30.16,SW,229,0.0,0.0,90,0.00,,,0.00,,2013-03-11 11:22:00,
2013-03-11 04:32:00,38.0,35.0,30.16,SW,229,0.0,0.0,90,0.00,,,0.00,,2013-03-11 11:32:00,
2013-03-11 04:42:00,38.0,35.0,30.16,SW,229,0.0,0.0,90,0.00,,,0.00,,2013-03-11 11:42:00,
2013-03-11 04:53:00,38.0,35.0,30.16,SW,229,0.0,0.0,90,0.00,,,0.00,,2013-03-11 11:53:00,
2013-03-11 05:02:00,38.0,36.0,30.16,SW,229,0.0,0.0,91,0.00,,,0.00,,2013-03-11 12:02:00,
2013-03-11 05:11:00,38.0,36.0,30.16,SW,229,0.0,0.0,91,0.00,,,0.00,,2013-03-11 12:11:00,
2013-03-11 05:22:00,38.0,36.0,30.16,SW,229,0.0,0.0,91,0.00,,,0.00,,2013-03-11 12:22:00,
2013-03-11 05:32:00,37.0,35.0,30.16,SW,229,0.0,0.0,91,0.00,,,0.00,,2013-03-11 12:32:00,
2013-03-11 05:42:00,37.0,35.0,30.16,SW,229,0.0,0.0,91,0.00,,,0.00,,2013-03-11 12:42:00,
2013-03-11 05:53:00,37.0,35.0,30.16,SW,229,0.0,0.0,91,0.00,,,0.00,,2013-03-11 12:53:00,
2013-03-11 06:02:00,37.0,35.0,30.16,SW,229,0.0,0.0,91,0.00,,,0.00,,2013-03-11 13:02:00,
2013-03-11 06:11:00,37.0,35.0,30.16,SW,229,0.0,0.0,91,0.00,,,0.00,,2013-03-11 13:11:00,
2013-03-11 06:22:00,37.0,35.0,30.16,SW,229,0.0,0.0,91,0.00,,,0.00,,2013-03-11 13:22:00,
2013-03-11 06:32:00,37.0,35.0,30.16,SW,229,0.0,0.0,91,0.00,,,0.00,,2013-03-11 13:32:00,
2013-03-11 06:42:00,37.0,35.0,30.16,SW,229,0.0,0.0,91,0.00,,,0.00,,2013-03-11 13:42:00,
2013-03-11 06:52:00,37.0,35.0,30.16,SW,229,0.0,0.0,91,0.00,,,0.00,,2013-03-11 13:52:00,
2013-03-11 07:02:00,37.0,35.0,30.16,SW,229,0.0,0.0,91,0.00,,,0.00,,2013-03-11 14:02:00,
2013-03-11 07:12:00,37.0,35.0,30.16,SW,229,0.0,0.0,91,0.00,,,0.00,,2013-03-11 14:12:00,
2013-03-11 07:22:00,37.0,35.0,30.16,SW,229,0.0,0.0,91,0.00,,,0.00,,2013-03-11 14:22:00,
2013-03-11 07:32:00,37.0,35.0,30.17,SW,229,0.0,0.0,92,0.00,,,0.00,,2013-03-11 14:32:00,
2013-03-11 07:42:00,37.0,35.0,30.17,SW,229,0.0,0.0,92,0.00,,,0.00,,2013-03-11 14:42:00,
2013-03-11 07:53:00,37.0,35.0,30.17,SW,229,0.0,0.0,92,0.00,,,0.00,,2013-03-11 14:53:00,
2013-03-11 08:02:00,37.0,35.0,30.17,SW,229,0.0,0.0,92,0.00,,,0.00,,2013-03-11 15:02:00,
2013-03-11 08:12:00,37.0,35.0,30.17,SW,229,0.0,0.0,92,0.00,,,0.00,,2013-03-11 15:12:00,
2013-03-11 08:22:00,37.0,35.0,30.17,SW,229,0.0,0.0,92,0.00,,,0.00,,2013-03-11 15:22:00,
2013-03-11 08:32:00,37.0,35.0,30.18,SW,229,0.0,0.0,92,0.00,,,0.00,,2013-03-11 15:32:00,
2013-03-11 08:42:00,37.0,35.0,30.18,SW,229,0.0,0.0,92,0.00,,,0.00,,2013-03-11 15:42:00,
2013-03-11 08:53:00,37.0,35.0,30.18,SW,229,0.0,0.0,92,0.00,,,0.00,,2013-03-11 15:53:00,
2013-03-11 09:02:00,37.0,35.0,30.18,SW,229,0.0,0.0,92,0.00,,,0.00,,2013-03-11 16:02:00,
2013-03-11 09:22:00,37.0,35.0,30.18,SW,229,0.0,0.0,92,0.00,,,0.00,,2013-03-11 16:22:00,
2013-03-11 09:32:00,38.0,36.0,30.18,SW,229,0.0,0.0,92,0.00,,,0.00,,2013-03-11 16:32:00,
2013-03-11 09:42:00,38.0,36.0,30.18,SW,229,0.0,0.0,92,0.00,,,0.00,,2013-03-11 16:42:00,
2013-03-11 09:52:00,38.0,36.0,30.18,SW,229,0.0,0.0,92,0.00,,,0.00,,2013-03-11 16:52:00,
2013-03-11 10:02:00,39.0,37.0,30.18,SW,229,0.0,0.0,93,0.00,,,0.00,,2013-03-11 17:02:00,
2013-03-11 10:12:00,39.0,37.0,30.18,SW,229,0.0,0.0,93,0.00,,,0.00,,2013-03-11 17:12:00,
2013-03-11 10:24:00,39.0,37.0,30.18,SW,229,0.0,0.0,93,0.00,,,0.00,,2013-03-11 17:24:00,
2013-03-11 10:33:00,43.0,41.0,30.17,SW,229,0.0,0.0,94,0.00,,,0.00,,2013-03-11 17:33:00,
2013-03-11 10:41:00,43.0,41.0,30.17,SW,229,0.0,0.0,94,0.00,,,0.00,,2013-03-11 17:41:00,
2013-03-11 10:53:00,43.0,41.0,30.17,SW,229,0.0,0.0,94,0.00,,,0.00,,2013-03-11 17:53:00,
2013-03-11 11:02:00,47.0,45.0,30.16,SW,229,0.0,0.0,93,0.00,,,0.00,,2013-03-11 18:02:00,
2013-03-11 11:11:00,47.0,45.0,30.16,SW,229,0.0,0.0,93,0.00,,,0.00,,2013-03-11 18:11:00,
2013-03-11 11:22:00,47.0,45.0,30.16,SW,229,0.0,0.0,93,0.00,,,0.00,,2013-03-11 18:22:00,
2013-03-11 11:32:00,52.0,46.0,30.15,SW,229,0.0,0.0,79,0.00,,,0.00,,2013-03-11 18:32:00,
2013-03-11 11:42:00,52.0,46.0,30.15,SW,229,0.0,0.0,79,0.00,,,0.00,,2013-03-11 18:42:00,
2013-03-11 11:53:00,52.0,46.0,30.15,SW,229,0.0,0.0,79,0.00,,,0.00,,2013-03-11 18:53:00,
2013-03-11 12:02:00,55.0,44.0,30.14,SW,229,0.0,0.0,67,0.00,,,0.00,,2013-03-11 19:02:00,
2013-03-11 12:12:00,55.0,44.0,30.14,SW,229,0.0,0.0,67,0.00,,,0.00,,2013-03-11 19:12:00,
2013-03-11 12:22:00,55.0,44.0,30.14,SW,229,0.0,0.0,67,0.00,,,0.00,,2013-03-11 19:22:00,
2013-03-11 12:32:00,58.0,45.0,30.13,SW,229,0.0,0.0,61,0.00,,,0.00,,2013-03-11 19:32:00,
2013-03-11 12:42:00,58.0,45.0,30.13,SW,229,0.0,0.0,61,0.00,,,0.00,,2013-03-11 19:42:00,
2013-03-11 12:52:00,58.0,45.0,30.13,SW,229,0.0,0.0,61,0.00,,,0.00,,2013-03-11 19:52:00,
2013-03-11 13:02:00,62.0,45.0,30.12,SW,229,0.0,0.0,53,0.00,,,0.00,,2013-03-11 20:02:00,
2013-03-11 13:11:00,62.0,45.0,30.12,SW,229,0.0,0.0,53,0.00,,,0.00,,2013-03-11 20:11:00,
2013-03-11 13:22:00,62.0,45.0,30.12,SW,229,0.0,0.0,53,0.00,,,0.00,,2013-03-11 20:22:00,
2013-03-11 13:32:00,64.0,45.0,30.10,SW,229,0.0,0.0,50,0.00,,,0.00,,2013-03-11 20:32:00,
2013-03-11 13:42:00,64.0,45.0,30.10,SW,229,0.0,0.0,50,0.00,,,0.00,,2013-03-11 20:42:00,
2013-03-11 13:53:00,64.0,45.0,30.10,SW,229,0.0,0.0,50,0.00,,,0.00,,2013-03-11 20:53:00,
2013-03-11 14:02:00,71.0,44.0,30.09,SW,228,0.0,1.0,38,0.00,,,0.00,,2013-03-11 21:02:00,
2013-03-11 14:11:00,71.0,44.0,30.09,SW,228,0.0,1.0,38,0.00,,,0.00,,2013-03-11 21:11:00,
2013-03-11 14:22:00,71.0,44.0,30.09,SW,228,0.0,1.0,38,0.00,,,0.00,,2013-03-11 21:22:00,
2013-03-11 14:32:00,72.0,39.0,30.07,SW,227,0.0,1.0,30,0.00,,,0.00,,2013-03-11 21:32:00,
2013-03-11 14:42:00,72.0,39.0,30.07,SW,227,0.0,1.0,30,0.00,,,0.00,,2013-03-11 21:42:00,
2013-03-11 14:53:00,72.0,39.0,30.07,SW,227,0.0,1.0,30,0.00,,,0.00,,2013-03-11 21:53:00,
2013-03-11 15:02:00,73.0,42.0,30.05,South,191,0.0,1.0,33,0.00,,,0.00,,2013-03-11 22:02:00,
2013-03-11 15:11:00,73.0,42.0,30.05,South,191,0.0,1.0,33,0.00,,,0.00,,2013-03-11 22:11:00,
2013-03-11 15:22:00,73.0,42.0,30.05,South,191,0.0,1.0,33,0.00,,,0.00,,2013-03-11 22:22:00,
2013-03-11 15:32:00,74.0,41.0,30.05,North,8,0.0,3.0,30,0.00,,,0.00,,2013-03-11 22:32:00,
2013-03-11 15:42:00,74.0,41.0,30.05,North,8,0.0,3.0,30,0.00,,,0.00,,2013-03-11 22:42:00,
2013-03-11 15:53:00,74.0,41.0,30.05,North,8,0.0,3.0,30,0.00,,,0.00,,2013-03-11 22:53:00,
2013-03-11 16:02:00,75.0,45.0,30.05,West,271,1.0,3.0,34,0.00,,,0.00,,2013-03-11 23:02:00,
2013-03-11 16:12:00,75.0,45.0,30.05,West,271,1.0,3.0,34,0.00,,,0.00,,2013-03-11 23:12:00,
2013-03-11 16:22:00,75.0,45.0,30.05,West,271,1.0,3.0,34,0.00,,,0.00,,2013-03-11 23:22:00,
2013-03-11 16:32:00,72.0,49.0,30.04,SSW,213,0.0,1.0,45,0.00,,,0.00,,2013-03-11 23:32:00,
2013-03-11 16:42:00,72.0,49.0,30.04,SSW,213,0.0,1.0,45,0.00,,,0.00,,2013-03-11 23:42:00,
2013-03-11 16:53:00,72.0,49.0,30.04,SSW,213,0.0,1.0,45,0.00,,,0.00,,2013-03-11 23:53:00,
2013-03-11 17:02:00,71.0,48.0,30.04,SW,216,0.0,2.0,44,0.00,,,0.00,,2013-03-12 00:02:00,
2013-03-11 17:12:00,71.0,48.0,30.04,SW,216,0.0,2.0,44,0.00,,,0.00,,2013-03-12 00:12:00,
2013-03-11 17:22:00,71.0,48.0,30.04,SW,216,0.0,2.0,44,0.00,,,0.00,,2013-03-12 00:22:00,
2013-03-11 17:32:00,68.0,48.0,30.04,SW,216,0.0,1.0,49,0.00,,,0.00,,2013-03-12 00:32:00,
2013-03-11 17:42:00,68.0,48.0,30.04,SW,216,0.0,1.0,49,0.00,,,0.00,,2013-03-12 00:42:00,
2013-03-11 17:53:00,68.0,48.0,30.04,SW,216,0.0,1.0,49,0.00,,,0.00,,2013-03-12 00:53:00,
2013-03-11 18:02:00,66.0,49.0,30.04,SW,216,0.0,1.0,55,0.00,,,0.00,,2013-03-12 01:02:00,
2013-03-11 18:11:00,66.0,49.0,30.04,SW,216,0.0,1.0,55,0.00,,,0.00,,2013-03-12 01:11:00,
2013-03-11 18:22:00,66.0,49.0,30.04,SW,216,0.0,1.0,55,0.00,,,0.00,,2013-03-12 01:22:00,
2013-03-11 18:32:00,63.0,46.0,30.04,SW,216,0.0,0.0,53,0.00,,,0.00,,2013-03-12 01:32:00,
2013-03-11 18:42:00,63.0,46.0,30.04,SW,216,0.0,0.0,53,0.00,,,0.00,,2013-03-12 01:42:00,
2013-03-11 18:52:00,63.0,46.0,30.04,SW,216,0.0,0.0,53,0.00,,,0.00,,2013-03-12 01:52:00,
2013-03-11 19:02:00,61.0,47.0,30.05,SW,216,0.0,1.0,60,0.00,,,0.00,,2013-03-12 02:02:00,
2013-03-11 19:11:00,61.0,47.0,30.05,SW,216,0.0,1.0,60,0.00,,,0.00,,2013-03-12 02:11:00,
2013-03-11 19:22:00,61.0,47.0,30.05,SW,216,0.0,1.0,60,0.00,,,0.00,,2013-03-12 02:22:00,
2013-03-11 19:32:00,59.0,48.0,30.05,SW,216,0.0,0.0,67,0.00,,,0.00,,2013-03-12 02:32:00,
2013-03-11 19:42:00,59.0,48.0,30.05,SW,216,0.0,0.0,67,0.00,,,0.00,,2013-03-12 02:42:00,
2013-03-11 19:52:00,59.0,48.0,30.05,SW,216,0.0,0.0,67,0.00,,,0.00,,2013-03-12 02:52:00,
2013-03-11 20:02:00,56.0,46.0,30.06,SW,216,0.0,0.0,70,0.00,,,0.00,,2013-03-12 03:02:00,
2013-03-11 20:11:00,56.0,46.0,30.06,SW,216,0.0,0.0,70,0.00,,,0.00,,2013-03-12 03:11:00,
2013-03-11 20:22:00,56.0,46.0,30.06,SW,216,0.0,0.0,70,0.00,,,0.00,,2013-03-12 03:22:00,
2013-03-11 20:32:00,54.0,46.0,30.06,SW,216,0.0,0.0,73,0.00,,,0.00,,2013-03-12 03:32:00,
2013-03-11 20:42:00,54.0,46.0,30.06,SW,216,0.0,0.0,73,0.00,,,0.00,,2013-03-12 03:42:00,
2013-03-11 20:52:00,54.0,46.0,30.06,SW,216,0.0,0.0,73,0.00,,,0.00,,2013-03-12 03:52:00,
2013-03-11 21:02:00,53.0,46.0,30.06,SW,216,0.0,0.0,76,0.00,,,0.00,,2013-03-12 04:02:00,
2013-03-11 21:12:00,53.0,46.0,30.06,SW,216,0.0,0.0,76,0.00,,,0.00,,2013-03-12 04:12:00,
2013-03-11 21:22:00,53.0,46.0,30.06,SW,216,0.0,0.0,76,0.00,,,0.00,,2013-03-12 04:22:00,
2013-03-11 21:32:00,51.0,45.0,30.06,SW,216,0.0,0.0,79,0.00,,,0.00,,2013-03-12 04:32:00,
2013-03-11 21:42:00,51.0,45.0,30.06,SW,216,0.0,0.0,79,0.00,,,0.00,,2013-03-12 04:42:00,
2013-03-11 21:52:00,51.0,45.0,30.06,SW,216,0.0,0.0,79,0.00,,,0.00,,2013-03-12 04:52:00,
2013-03-11 22:02:00,50.0,44.0,30.08,SW,216,0.0,0.0,81,0.00,,,0.00,,2013-03-12 05:02:00,
2013-03-11 22:11:00,50.0,44.0,30.08,SW,216,0.0,0.0,81,0.00,,,0.00,,2013-03-12 05:11:00,
2013-03-11 22:22:00,50.0,44.0,30.08,SW,216,0.0,0.0,81,0.00,,,0.00,,2013-03-12 05:22:00,
2013-03-11 22:32:00,49.0,44.0,30.07,SW,216,0.0,0.0,83,0.00,,,0.00,,2013-03-12 05:32:00,
2013-03-11 22:41:00,49.0,44.0,30.07,SW,216,0.0,0.0,83,0.00,,,0.00,,2013-03-12 05:41:00,
2013-03-11 22:52:00,49.0,44.0,30.07,SW,216,0.0,0.0,83,0.00,,,0.00,,2013-03-12 05:52:00,
2013-03-11 23:02:00,48.0,43.0,30.08,SW,216,0.0,0.0,84,0.00,,,0.00,,2013-03-12 06:02:00,
2013-03-11 23:11:00,48.0,43.0,30.08,SW,216,0.0,0.0,84,0.00,,,0.00,,2013-03-12 06:11:00,
2013-03-11 23:22:00,48.0,43.0,30.08,SW,216,0.0,0.0,84,0.00,,,0.00,,2013-03-12 06:22:00,
2013-03-11 23:32:00,47.0,43.0,30.06,SW,216,0.0,0.0,85,0.00,,,0.00,,2013-03-12 06:32:00,
2013-03-11 23:42:00,47.0,43.0,30.06,SW,216,0.0,0.0,85,0.00,,,0.00,,2013-03-12 06:42:00,
2013-03-11 23:52:00,47.0,43.0,30.06,SW,216,0.0,0.0,85,0.00,,,0.00,,2013-03-12 06:52:00,